Latest Weather Observations for Grove

IDT60901

Issued at 9:01 pm EST Wednesday 25 May 2016 (issued every 10 minutes, with the page automatically refreshed every 10 minutes)

About weather observations | Map of Hobart area stations | Latest observations for Hobart area | Other Formats
Station Details ID: 094220 Name: GROVE (RESEARCH STATION) Lat: -42.99 Lon: 147.07 Height: 65.0 m
Data from the previous 72 hours. | See also: Recent months at Grove
Date/Time
EST
Tmp

°C
App
Tmp
°C
Dew
Point
°C
Rel
Hum
%
Delta-T

°C
Wind Press
QNH
hPa
Press
MSL
hPa
Rain
since
9 am
mm
Dir
 
Spd
km/h
Gust
km/h
Spd
kts
Gust
kts
25/09:00pm 4.3 1.9 4.1 99 0.1 NNW 6 11 3 6 - - 0.2
25/08:30pm 4.1 2.0 3.9 99 0.1 E 4 7 2 4 - - 0.2
25/08:00pm 3.4 1.6 3.2 99 0.1 WSW 2 7 1 4 - - 0.2
25/07:30pm 3.4 1.9 3.2 99 0.1 CALM 0 0 0 0 - - 0.2
25/07:00pm 4.0 1.3 3.8 99 0.1 NE 7 9 4 5 - - 0.2
25/06:30pm 4.3 2.9 3.8 97 0.2 CALM 0 0 0 0 - - 0.2
25/06:00pm 4.9 3.6 4.2 95 0.3 CALM 0 0 0 0 - - 0.2
25/05:30pm 5.4 4.2 4.5 94 0.4 CALM 0 0 0 0 - - 0.2
25/05:00pm 6.0 4.9 5.1 94 0.4 CALM 0 0 0 0 - - 0.2
25/04:30pm 6.9 5.7 4.8 86 0.9 CALM 0 0 0 0 - - 0.2
25/04:00pm 7.4 6.3 5.1 85 1.0 CALM 0 0 0 0 - - 0.2
25/03:30pm 7.8 6.6 4.6 80 1.4 CALM 0 0 0 0 - - 0.2
25/03:00pm 7.7 6.3 3.8 76 1.7 CALM 0 0 0 0 - - 0.2
25/02:30pm 7.6 6.2 3.6 76 1.7 CALM 0 0 0 0 - - 0.2
25/02:00pm 7.4 6.0 3.7 77 1.6 CALM 0 0 0 0 - - 0.2
25/01:30pm 7.1 5.7 3.3 77 1.6 CALM 0 0 0 0 - - 0.2
25/01:00pm 6.5 4.7 3.4 80 1.3 WSW 2 6 1 3 - - 0.2
25/12:30pm 5.9 3.3 3.0 82 1.2 SSW 6 9 3 5 - - 0.2
25/12:00pm 5.8 2.9 2.6 80 1.3 WSW 7 11 4 6 - - 0.2
25/11:30am 4.3 1.4 2.8 90 0.6 SW 7 9 4 5 - - 0.2
25/11:00am 3.9 1.1 3.2 95 0.3 SSW 7 9 4 5 - - 0.2
25/10:30am 4.6 3.2 3.4 92 0.5 CALM 0 0 0 0 - - 0.2
25/10:00am 2.5 - - - - NE 6 9 3 5 - - 0.2
25/09:30am 0.2 - - - - NNE 7 9 4 5 - - 0.0
25/09:00am -0.1 - - - - ESE 4 7 2 4 - - 0.2
25/08:30am -0.8 - - - - ENE 6 7 3 4 - - 0.2
25/08:00am -1.7 - - - - NNE 6 7 3 4 - - 0.2
25/07:30am -1.8 - - - - WNW 6 9 3 5 - - 0.2
25/07:00am -2.4 - - - - CALM 0 0 0 0 - - 0.2
25/06:30am -2.4 - - - - CALM 0 6 0 3 - - 0.2
25/06:00am -2.2 - - - - SE 2 6 1 3 - - 0.2
25/05:30am -2.0 - - - - CALM 0 0 0 0 - - 0.2
25/05:00am -1.7 - - - - CALM 0 0 0 0 - - 0.2
25/04:30am -1.4 - - - - CALM 0 0 0 0 - - 0.2
25/04:00am -1.7 - - - - NE 7 9 4 5 - - 0.2
25/03:30am -1.9 - - - - CALM 0 0 0 0 - - 0.2
25/03:00am -1.7 - - - - CALM 0 0 0 0 - - 0.2
25/02:30am -1.5 - - - - NNW 4 7 2 4 - - 0.2
25/02:00am -1.2 - - - - NE 6 9 3 5 - - 0.2
25/01:30am -1.4 - - - - NNE 4 7 2 4 - - 0.2
25/01:00am -0.9 - - - - ENE 6 9 3 5 - - 0.2
25/12:30am -0.9 - - - - N 4 7 2 4 - - 0.2
25/12:00am -0.6 - - - - ENE 6 7 3 4 - - 0.2
 
Date/Time
EST
Tmp

°C
App
Tmp
°C
Dew
Point
°C
Rel
Hum
%
Delta-T

°C
Wind Press
QNH
hPa
Press
MSL
hPa
Rain
since
9 am
mm
Dir
 
Spd
km/h
Gust
km/h
Spd
kts
Gust
kts
24/11:30pm -0.1 - - - - NNE 2 7 1 4 - - 0.2
24/11:00pm 0.2 - - - - NE 6 7 3 4 - - 0.2
24/10:30pm 0.3 - - - - N 6 7 3 4 - - 0.2
24/10:00pm 0.6 -2.1 0.6 100 0.0 ENE 4 7 2 4 - - 0.2
24/09:30pm 0.5 -2.6 0.2 98 0.1 N 6 7 3 4 - - 0.2
24/09:00pm 1.2 -1.7 1.2 100 0.0 NE 6 7 3 4 - - 0.2
24/08:30pm 2.3 -0.7 1.8 96 0.2 NNE 7 11 4 6 - - 0.2
24/08:00pm 2.1 -0.8 1.6 96 0.2 ENE 6 9 3 5 - - 0.2
24/07:30pm 2.5 -0.3 2.0 96 0.2 NE 6 9 3 5 - - 0.2
24/07:00pm 2.1 -0.9 1.8 98 0.1 NE 7 9 4 5 - - 0.2
24/06:30pm 2.7 -0.1 1.9 94 0.3 NNE 6 9 3 5 - - 0.2
24/06:00pm 4.1 1.2 2.6 90 0.6 NE 7 9 4 5 - - 0.2
24/05:30pm 5.3 3.0 2.9 84 1.0 WSW 4 6 2 3 - - 0.2
24/05:00pm 6.5 3.9 3.4 80 1.3 W 6 9 3 5 - - 0.2
24/04:30pm 8.0 4.6 1.7 64 2.6 W 9 13 5 7 - - 0.2
24/04:00pm 9.3 5.4 1.3 57 3.3 W 11 17 6 9 - - 0.2
24/03:30pm 9.9 5.7 1.8 57 3.4 W 13 20 7 11 - - 0.2
24/03:00pm 10.9 6.4 2.3 55 3.7 W 15 22 8 12 - - 0.2
24/02:30pm 10.5 6.4 2.3 57 3.5 WSW 13 20 7 11 - - 0.2
24/02:00pm 11.2 6.3 2.1 53 3.9 WSW 17 24 9 13 - - 0.2
24/01:30pm 10.4 6.3 2.5 58 3.4 WSW 13 17 7 9 - - 0.2
24/01:00pm 8.8 6.1 3.7 70 2.2 SSW 7 11 4 6 - - 0.2
24/12:30pm 8.1 5.2 4.7 79 1.5 WSW 9 17 5 9 - - 0.2
24/12:00pm 8.2 3.7 4.1 75 1.8 S 17 26 9 14 - - 0.0
24/11:30am 9.5 5.4 2.4 61 3.0 SSW 13 24 7 13 - - 0.0
24/11:00am 9.4 6.9 3.7 67 2.5 S 6 11 3 6 - - 0.0
24/10:30am 8.7 6.5 5.4 80 1.5 NNE 6 7 3 4 - - 0.0
24/10:00am 7.1 4.7 5.1 87 0.9 ENE 7 9 4 5 - - 0.0
24/09:30am 6.2 3.6 4.1 86 0.9 N 7 9 4 5 - - 0.0
24/09:00am 4.0 1.3 3.5 97 0.2 NNE 7 9 4 5 - - 6.0
24/08:30am 2.8 0.1 2.5 98 0.1 NNE 6 9 3 5 - - 6.0
24/08:00am 2.7 -0.1 2.2 96 0.2 NNE 6 7 3 4 - - 6.0
24/07:30am 2.8 0.1 2.5 98 0.1 NE 6 7 3 4 - - 6.0
24/07:00am 4.0 2.5 3.0 93 0.4 CALM 0 0 0 0 - - 6.0
24/06:30am 4.0 2.2 3.3 95 0.3 S 2 7 1 4 - - 6.0
24/06:00am 6.6 3.9 3.8 82 1.2 SSW 7 11 4 6 - - 6.0
24/05:30am 6.1 3.6 4.0 86 0.9 SSW 6 9 3 5 - - 6.0
24/05:00am 6.0 3.3 3.9 86 0.9 S 7 11 4 6 - - 6.0
24/04:30am 5.8 3.4 4.4 91 0.6 WSW 6 9 3 5 - - 6.0
24/04:00am 5.2 4.0 4.5 95 0.3 CALM 0 0 0 0 - - 6.0
24/03:30am 5.0 3.7 4.3 95 0.3 CALM 0 0 0 0 - - 6.0
24/03:00am 5.1 3.8 4.2 94 0.4 CALM 0 0 0 0 - - 6.0
24/02:30am 5.1 2.6 3.7 91 0.6 SSE 6 7 3 4 - - 6.0
24/02:00am 4.6 1.6 3.9 95 0.3 NNE 9 9 5 5 - - 6.0
24/01:30am 5.3 3.2 3.9 91 0.6 N 4 9 2 5 - - 6.0
24/01:00am 5.7 3.2 3.8 87 0.8 W 6 7 3 4 - - 6.0
24/12:30am 6.4 2.9 3.3 80 1.3 W 11 15 6 8 - - 6.0
24/12:00am 5.6 2.4 3.2 84 1.0 W 9 15 5 8 - - 6.0
 
Date/Time
EST
Tmp

°C
App
Tmp
°C
Dew
Point
°C
Rel
Hum
%
Delta-T

°C
Wind Press
QNH
hPa
Press
MSL
hPa
Rain
since
9 am
mm
Dir
 
Spd
km/h
Gust
km/h
Spd
kts
Gust
kts
23/11:30pm 5.0 2.4 3.1 87 0.8 WNW 6 7 3 4 - - 6.0
23/11:00pm 5.1 2.3 2.9 86 0.9 W 7 13 4 7 - - 6.0
23/10:30pm 5.3 2.5 3.1 86 0.9 NNE 7 11 4 6 - - 6.0
23/10:00pm 6.6 3.7 2.5 75 1.7 WSW 7 11 4 6 - - 6.0
23/09:30pm 7.0 3.4 2.7 74 1.8 SW 11 19 6 10 - - 6.0
23/09:00pm 6.7 1.9 2.6 75 1.7 WSW 17 22 9 12 - - 6.0
23/08:30pm 6.5 3.0 3.7 82 1.2 SW 11 19 6 10 - - 6.0
23/08:00pm 7.0 1.9 3.2 77 1.6 WSW 19 30 10 16 - - 6.0
23/07:30pm 6.9 1.9 3.4 78 1.5 W 19 32 10 17 - - 5.8
23/07:08pm 7.1 -1.3 3.8 79 1.4 WSW 37 59 20 32 - - 5.6
23/07:07pm 7.2 -2.3 3.9 79 1.4 W 43 59 23 32 - - 5.4
23/07:00pm 7.9 2.7 3.7 75 1.8 W 20 39 11 21 - - 4.6
23/06:30pm 7.6 2.0 3.6 76 1.7 W 22 33 12 18 - - 4.4
23/06:00pm 7.7 3.7 4.8 82 1.3 W 15 24 8 13 - - 4.2
23/05:30pm 7.3 3.3 5.0 85 1.0 WSW 15 24 8 13 - - 4.2
23/05:00pm 7.8 4.1 4.4 79 1.5 WSW 13 20 7 11 - - 3.4
23/04:30pm 7.9 4.7 5.0 82 1.3 WSW 11 17 6 9 - - 3.4
23/04:00pm 8.7 3.9 4.9 77 1.7 WSW 19 32 10 17 - - 3.2
23/03:30pm 8.8 5.7 5.5 80 1.5 SW 11 17 6 9 - - 3.2
23/03:00pm 9.0 5.4 5.0 76 1.8 SW 13 22 7 12 - - 3.2
23/02:30pm 9.5 4.5 4.8 72 2.1 WSW 20 46 11 25 - - 3.2
23/02:00pm 9.5 6.3 7.0 84 1.2 SW 13 20 7 11 - - 3.0
23/01:30pm 9.6 6.6 7.7 88 0.9 SW 13 22 7 12 - - 3.0
23/01:00pm 10.0 7.8 7.9 87 1.0 WSW 9 20 5 11 - - 3.0
23/12:30pm 9.9 9.2 8.7 92 0.6 S 2 7 1 4 - - 2.8
23/12:00pm 9.8 9.5 8.8 93 0.5 CALM 0 0 0 0 - - 2.8
23/11:30am 9.4 7.9 8.6 95 0.4 S 6 7 3 4 - - 2.4
23/11:00am 9.6 8.9 8.6 93 0.5 SE 2 7 1 4 - - 1.6
23/10:30am 9.8 9.6 9.2 96 0.3 CALM 0 0 0 0 - - 1.0
23/10:00am 9.7 8.4 9.3 97 0.2 SSW 6 7 3 4 - - 1.0
23/09:30am 9.7 9.6 9.3 97 0.2 CALM 0 0 0 0 - - 0.6
23/09:00am 9.6 8.7 9.4 99 0.1 SSW 4 6 2 3 - - 4.4
23/08:30am 9.6 8.3 9.2 97 0.2 SW 6 9 3 5 - - 4.2
23/08:00am 9.5 8.2 9.3 99 0.1 W 6 7 3 4 - - 4.2
23/07:30am 9.7 8.2 9.3 97 0.2 S 7 9 4 5 - - 4.2
23/07:00am 9.8 7.5 9.0 95 0.4 NE 11 19 6 10 - - 4.2
23/06:30am 9.9 8.5 9.5 97 0.2 ENE 7 13 4 7 - - 3.6
23/06:00am 10.5 9.0 9.1 91 0.7 SSW 7 9 4 5 - - 3.6
23/05:30am 10.8 9.0 9.4 91 0.7 WSW 9 11 5 6 - - 2.6
23/05:00am 11.6 9.2 8.8 83 1.4 S 11 20 6 11 - - 1.0
23/04:30am 12.7 9.5 8.3 74 2.2 S 15 20 8 11 - - 0.4
23/04:00am 13.0 9.6 7.5 69 2.7 W 15 24 8 13 - - 0.4
23/03:37am 14.7 8.8 7.7 63 3.5 W 28 50 15 27 - - 0.0
23/03:30am 16.2 14.1 8.1 58 4.1 N 9 13 5 7 - - 0.0
23/03:00am 17.0 15.1 7.5 53 4.8 ENE 7 13 4 7 - - 0.0
23/02:30am 16.6 14.2 7.2 54 4.7 E 9 13 5 7 - - 0.0
23/02:00am 17.3 14.4 6.6 49 5.3 E 11 19 6 10 - - 0.0
23/01:30am 17.7 14.4 6.6 48 5.5 ENE 13 20 7 11 - - 0.0
23/01:00am 17.8 15.3 6.5 47 5.6 ENE 9 15 5 8 - - 0.0
23/12:30am 18.0 15.7 5.5 43 6.1 NW 7 15 4 8 - - 0.0
23/12:00am 16.8 13.8 5.9 48 5.3 SSW 11 17 6 9 - - 0.0
 
Date/Time
EST
Tmp

°C
App
Tmp
°C
Dew
Point
°C
Rel
Hum
%
Delta-T

°C
Wind Press
QNH
hPa
Press
MSL
hPa
Rain
since
9 am
mm
Dir
 
Spd
km/h
Gust
km/h
Spd
kts
Gust
kts
22/11:30pm 18.0 14.9 5.7 44 6.0 ESE 11 19 6 10 - - 0.0
22/11:00pm 17.5 14.9 6.1 47 5.6 WNW 9 19 5 10 - - 0.0
22/10:30pm 17.6 13.3 5.2 44 6.0 NNW 17 28 9 15 - - 0.0
22/10:00pm 17.4 13.8 5.1 44 5.9 NNW 13 24 7 13 - - 0.0
22/09:30pm 17.7 13.7 4.7 42 6.2 N 15 39 8 21 - - 0.0

Latest Capital City Observations: Canberra | Sydney | Melbourne | Brisbane | Adelaide | Perth | Hobart | Darwin

Other Formats:

Comma delimited format used in spreadsheet applications
http://www.bom.gov.au/fwo/IDT60901/IDT60901.95977.axf

JavaScript Object Notation format (JSON) in row-major order
http://www.bom.gov.au/fwo/IDT60901/IDT60901.95977.json